Time;durP1;ratioP1;P1;durP2;ratioP2;P2;SDS_P1;SDS_P2;PMS_P1;PMS_P2;Temp;Humidity;BMP_temperature;BMP_pressure;BME280_temperature;BME280_humidity;BME280_pressure;Samples;Min_cycle;Max_cycle;Signal;HPM_P1;HPM_P2
2023/09/14 00:01:03;;;;;;;6.88;1.38;;;13.60;99.90;;;;;;6246682;23;20020;-82
2023/09/14 00:03:28;;;;;;;4.63;1.80;;;13.60;99.90;;;;;;6219584;23;20012;-82
2023/09/14 00:05:54;;;;;;;6.75;2.20;;;13.50;99.90;;;;;;6219804;23;20066;-82
2023/09/14 00:08:21;;;;;;;5.60;1.48;;;13.60;99.90;;;;;;6246516;23;20049;-82
2023/09/14 00:10:55;;;;;;;5.57;1.60;;;13.50;99.90;;;;;;6219636;23;20027;-82
2023/09/14 00:13:24;;;;;;;5.00;1.83;;;13.50;99.90;;;;;;6246729;23;20032;-82
2023/09/14 00:15:50;;;;;;;5.15;1.50;;;13.40;99.90;;;;;;6219966;23;20048;-82
2023/09/14 00:18:20;;;;;;;5.50;1.60;;;13.40;99.90;;;;;;6246429;23;20038;-84
2023/09/14 00:20:45;;;;;;;6.43;1.88;;;13.40;99.90;;;;;;6246481;23;20066;-82
2023/09/14 00:23:11;;;;;;;4.10;1.77;;;13.40;99.90;;;;;;6219089;23;20051;-82
2023/09/14 00:25:37;;;;;;;6.65;1.58;;;13.30;99.90;;;;;;6219259;23;20020;-82
2023/09/14 00:28:03;;;;;;;4.43;1.40;;;13.40;99.90;;;;;;6219610;23;20426;-82
2023/09/14 00:30:29;;;;;;;3.53;1.33;;;13.20;99.90;;;;;;6244452;22;20078;-82
2023/09/14 00:32:54;;;;;;;5.57;1.65;;;13.30;99.90;;;;;;6219120;23;20020;-82
2023/09/14 00:35:20;;;;;;;6.85;2.03;;;13.30;99.90;;;;;;6245965;23;20070;-82
2023/09/14 00:37:48;;;;;;;5.18;1.20;;;13.30;99.90;;;;;;6246158;23;20020;-82
2023/09/14 00:40:14;;;;;;;6.45;1.80;;;13.30;99.90;;;;;;6219216;23;20023;-82
2023/09/14 00:42:42;;;;;;;4.57;1.30;;;13.30;99.90;;;;;;6246288;23;20038;-82
2023/09/14 00:45:09;;;;;;;4.82;1.50;;;13.30;99.90;;;;;;6246253;23;20020;-82
2023/09/14 00:47:38;;;;;;;6.03;1.63;;;13.30;99.90;;;;;;6219582;23;20023;-82
2023/09/14 00:50:06;;;;;;;4.25;1.67;;;13.30;99.90;;;;;;6220034;23;20023;-82
2023/09/14 00:52:34;;;;;;;5.07;1.75;;;13.30;99.90;;;;;;6245572;23;20020;-82
2023/09/14 00:55:00;;;;;;;4.13;1.48;;;13.30;99.90;;;;;;6194889;23;20016;-84
2023/09/14 00:57:26;;;;;;;3.40;1.30;;;13.30;99.90;;;;;;6248523;23;20055;-82
2023/09/14 00:59:52;;;;;;;7.20;1.80;;;13.30;99.90;;;;;;6221299;23;20078;-82
2023/09/14 01:02:18;;;;;;;6.68;1.42;;;13.30;99.90;;;;;;6196608;23;20104;-82
2023/09/14 01:04:44;;;;;;;3.33;1.70;;;13.30;99.90;;;;;;6247901;23;20047;-82
2023/09/14 01:07:15;;;;;;;4.03;1.40;;;13.30;99.90;;;;;;6196324;23;20051;-81
2023/09/14 01:09:40;;;;;;;3.38;1.25;;;13.30;99.90;;;;;;6221071;23;20441;-84
2023/09/14 01:12:08;;;;;;;5.28;1.60;;;13.30;99.90;;;;;;6220555;23;20023;-82
2023/09/14 01:15:26;;;;;;;5.72;1.70;;;13.40;99.90;;;;;;6220911;23;20016;-81
2023/09/14 01:18:05;;;;;;;4.68;1.42;;;13.30;99.90;;;;;;6096145;23;20369;-82
2023/09/14 01:21:00;;;;;;;8.75;2.42;;;13.30;99.90;;;;;;6096126;23;20061;-79
2023/09/14 01:23:32;;;;;;;5.30;1.40;;;13.30;99.90;;;;;;6225614;23;20078;-81
2023/09/14 01:25:59;;;;;;;4.65;1.38;;;13.20;99.90;;;;;;6247838;23;20031;-81
2023/09/14 01:28:24;;;;;;;6.03;1.80;;;13.20;99.90;;;;;;6247800;23;20016;-82
2023/09/14 01:30:50;;;;;;;7.68;1.88;;;13.30;99.90;;;;;;6190336;23;20039;-82
2023/09/14 01:33:17;;;;;;;6.13;1.30;;;13.20;99.90;;;;;;6217551;23;20311;-81
2023/09/14 01:36:05;;;;;;;4.30;1.42;;;13.20;99.90;;;;;;6217118;23;20095;-82
2023/09/14 01:38:34;;;;;;;4.57;1.77;;;13.30;99.90;;;;;;6215347;23;20024;-81
2023/09/14 01:41:00;;;;;;;6.28;1.90;;;13.30;99.90;;;;;;6217242;23;20020;-82
2023/09/14 01:43:27;;;;;;;3.72;1.50;;;13.40;99.90;;;;;;6217421;23;20338;-81
2023/09/14 01:45:53;;;;;;;4.13;1.20;;;13.30;99.90;;;;;;6217450;23;20292;-81
2023/09/14 01:48:23;;;;;;;5.05;1.27;;;13.30;99.90;;;;;;6217285;23;20044;-81
2023/09/14 01:50:49;;;;;;;5.05;1.55;;;13.30;99.90;;;;;;6217458;23;20024;-81
2023/09/14 01:53:15;;;;;;;5.05;1.52;;;13.30;99.90;;;;;;6217401;23;20017;-82
2023/09/14 01:55:40;;;;;;;4.78;1.88;;;13.30;99.90;;;;;;6215443;23;20020;-81
2023/09/14 01:58:06;;;;;;;4.47;1.30;;;13.30;99.90;;;;;;6217176;23;20048;-82
2023/09/14 02:00:32;;;;;;;4.80;1.58;;;13.30;99.90;;;;;;6217214;23;20349;-81
2023/09/14 02:02:59;;;;;;;6.93;1.50;;;13.30;99.90;;;;;;6215739;23;20333;-81
2023/09/14 02:05:25;;;;;;;3.88;0.95;;;13.30;99.90;;;;;;6190661;23;20410;-82
2023/09/14 02:07:51;;;;;;;4.10;1.52;;;13.20;99.90;;;;;;6215218;23;20012;-81
2023/09/14 02:10:19;;;;;;;7.60;1.35;;;13.20;99.90;;;;;;6215612;23;20341;-81
2023/09/14 02:12:45;;;;;;;5.88;1.40;;;13.20;99.90;;;;;;6215602;23;20047;-81
2023/09/14 02:15:11;;;;;;;5.88;1.80;;;13.20;99.90;;;;;;6215505;23;20016;-81
2023/09/14 02:17:36;;;;;;;3.15;1.08;;;13.20;99.90;;;;;;6215754;23;20048;-81
2023/09/14 02:20:05;;;;;;;6.22;1.58;;;13.20;99.90;;;;;;6190499;23;20056;-81
2023/09/14 02:22:30;;;;;;;6.40;1.38;;;13.20;99.90;;;;;;6217287;23;20016;-80
2023/09/14 02:24:56;;;;;;;5.43;1.60;;;13.20;99.90;;;;;;6215593;23;20461;-81
2023/09/14 02:27:22;;;;;;;3.55;1.08;;;13.20;99.90;;;;;;6215534;23;20021;-82
2023/09/14 02:29:53;;;;;;;3.38;1.40;;;13.10;99.90;;;;;;6215555;23;20422;-81
2023/09/14 02:32:19;;;;;;;6.05;1.38;;;13.10;99.90;;;;;;6220272;23;20027;-81
2023/09/14 02:34:44;;;;;;;4.55;1.25;;;13.10;99.90;;;;;;6247281;23;20018;-81
2023/09/14 02:37:10;;;;;;;6.18;1.23;;;13.10;99.90;;;;;;6247359;23;20087;-80
2023/09/14 02:39:36;;;;;;;4.78;1.48;;;13.10;99.90;;;;;;6220436;23;20020;-81
2023/09/14 02:42:01;;;;;;;5.20;1.50;;;13.10;99.90;;;;;;6247381;23;20020;-81
2023/09/14 02:44:27;;;;;;;5.72;1.40;;;13.10;99.90;;;;;;6195249;23;20155;-81
2023/09/14 02:46:53;;;;;;;3.88;1.58;;;13.10;99.90;;;;;;6220167;23;20020;-81
2023/09/14 02:49:19;;;;;;;5.03;1.85;;;13.10;99.90;;;;;;6220066;23;20015;-81
2023/09/14 02:51:44;;;;;;;3.50;1.52;;;13.00;99.90;;;;;;6220276;23;20016;-81
2023/09/14 02:54:10;;;;;;;4.80;1.77;;;12.90;99.90;;;;;;6247165;23;20095;-81
2023/09/14 02:56:35;;;;;;;4.50;1.85;;;12.80;99.90;;;;;;6219984;23;20023;-80
2023/09/14 02:59:01;;;;;;;6.22;2.58;;;12.70;99.90;;;;;;6220255;23;20016;-81
2023/09/14 03:01:28;;;;;;;5.20;1.60;;;12.60;99.90;;;;;;6220347;23;20445;-80
2023/09/14 03:03:53;;;;;;;7.88;1.25;;;12.60;99.90;;;;;;6220398;23;20091;-81
2023/09/14 03:06:19;;;;;;;6.32;1.90;;;12.50;99.90;;;;;;6246553;23;20055;-81
2023/09/14 03:08:45;;;;;;;5.03;1.92;;;12.50;99.90;;;;;;6219928;23;20016;-81
2023/09/14 03:11:11;;;;;;;3.63;1.50;;;12.50;99.90;;;;;;6246151;23;20012;-81
2023/09/14 03:13:37;;;;;;;3.67;1.70;;;12.50;99.90;;;;;;6247456;23;20299;-81
2023/09/14 03:16:03;;;;;;;3.97;1.60;;;12.50;99.90;;;;;;6246391;23;20027;-81
2023/09/14 03:18:28;;;;;;;3.60;1.40;;;12.50;99.90;;;;;;6219174;23;20008;-81
2023/09/14 03:20:56;;;;;;;6.20;1.73;;;12.50;99.90;;;;;;6247048;23;20027;-81
2023/09/14 03:23:23;;;;;;;4.28;1.00;;;12.40;99.90;;;;;;6246036;23;20102;-81
2023/09/14 03:25:50;;;;;;;4.55;1.38;;;12.40;99.90;;;;;;6219576;23;20142;-81
2023/09/14 03:28:18;;;;;;;4.78;1.70;;;12.40;99.90;;;;;;6219513;23;20044;-81
2023/09/14 03:30:44;;;;;;;4.53;1.73;;;12.30;99.90;;;;;;6214079;23;20048;-81
2023/09/14 03:33:14;;;;;;;6.78;2.20;;;12.30;99.90;;;;;;6215926;23;20446;-81
2023/09/14 03:35:43;;;;;;;4.25;1.73;;;12.30;99.90;;;;;;6214481;23;20009;-81
2023/09/14 03:38:09;;;;;;;6.25;2.63;;;12.30;99.90;;;;;;6216322;23;20055;-80
2023/09/14 03:40:37;;;;;;;5.10;2.08;;;12.20;99.90;;;;;;6215953;23;20025;-80
2023/09/14 03:43:03;;;;;;;5.93;1.95;;;12.20;99.90;;;;;;6215952;23;20100;-81
2023/09/14 03:45:30;;;;;;;5.65;1.73;;;12.20;99.90;;;;;;6215786;23;20320;-80
2023/09/14 03:47:55;;;;;;;3.50;1.70;;;12.10;99.90;;;;;;6164930;23;20020;-80
2023/09/14 03:50:21;;;;;;;6.32;2.10;;;12.00;99.90;;;;;;6216578;23;20047;-80
2023/09/14 03:52:46;;;;;;;4.30;1.40;;;12.00;99.90;;;;;;6215889;23;20021;-80
2023/09/14 03:55:13;;;;;;;4.47;1.67;;;11.90;99.90;;;;;;6214556;23;20020;-81
2023/09/14 03:57:38;;;;;;;5.72;1.60;;;11.80;99.90;;;;;;6216433;23;20382;-80
2023/09/14 04:00:11;;;;;;;6.18;2.40;;;11.80;99.90;;;;;;6217290;23;20440;-81
2023/09/14 04:02:36;;;;;;;6.07;1.92;;;11.90;99.90;;;;;;6216169;23;20026;-81
2023/09/14 04:05:13;;;;;;;9.48;1.98;;;11.90;99.90;;;;;;6214326;23;20052;-81
2023/09/14 04:07:38;;;;;;;4.68;1.83;;;11.80;99.90;;;;;;6189734;23;20098;-80
2023/09/14 04:10:06;;;;;;;5.72;1.80;;;11.90;99.90;;;;;;6214194;23;20454;-80
2023/09/14 04:12:32;;;;;;;6.70;1.83;;;11.80;99.90;;;;;;6214668;23;20449;-80
2023/09/14 04:14:57;;;;;;;4.95;1.65;;;11.80;99.90;;;;;;6214303;23;20155;-80
2023/09/14 04:17:23;;;;;;;7.22;2.10;;;11.80;99.90;;;;;;6216168;23;20013;-80
2023/09/14 04:19:49;;;;;;;5.57;1.85;;;11.80;99.90;;;;;;6216073;23;20319;-80
2023/09/14 04:22:15;;;;;;;3.65;1.23;;;11.90;99.90;;;;;;6214545;23;20023;-80
2023/09/14 04:24:40;;;;;;;5.75;1.45;;;11.90;99.90;;;;;;6189501;23;20016;-80
2023/09/14 04:27:06;;;;;;;5.40;1.60;;;11.90;99.90;;;;;;6216020;23;20438;-79
2023/09/14 04:29:31;;;;;;;3.80;1.33;;;11.90;99.90;;;;;;6214668;23;20027;-80
2023/09/14 04:31:57;;;;;;;4.38;1.40;;;11.90;99.90;;;;;;6245259;23;20031;-80
2023/09/14 04:34:24;;;;;;;4.80;1.52;;;11.90;99.90;;;;;;6221409;23;20016;-80
2023/09/14 04:36:50;;;;;;;4.97;1.38;;;11.90;99.90;;;;;;6247566;23;20438;-80
2023/09/14 04:39:16;;;;;;;5.18;1.80;;;11.90;99.90;;;;;;6248674;23;20016;-79
2023/09/14 04:41:41;;;;;;;3.00;1.30;;;11.90;99.90;;;;;;6221690;23;20027;-80
2023/09/14 04:44:07;;;;;;;3.80;1.70;;;12.00;99.90;;;;;;6221354;23;20074;-79
2023/09/14 04:46:33;;;;;;;6.75;1.80;;;11.90;99.90;;;;;;6196498;23;20023;-80
2023/09/14 04:48:59;;;;;;;4.45;1.70;;;11.80;99.90;;;;;;6221343;23;20016;-80
2023/09/14 04:51:24;;;;;;;4.57;1.60;;;11.80;99.90;;;;;;6221289;23;20055;-81
2023/09/14 04:53:52;;;;;;;6.00;1.77;;;11.70;99.90;;;;;;6248076;23;20087;-81
2023/09/14 04:56:18;;;;;;;7.13;1.70;;;11.70;99.90;;;;;;6221532;23;20216;-80
2023/09/14 04:58:44;;;;;;;7.65;1.88;;;11.70;99.90;;;;;;6248063;23;20429;-80
2023/09/14 05:01:09;;;;;;;4.40;1.38;;;11.60;99.90;;;;;;6248241;23;20027;-80
2023/09/14 05:03:35;;;;;;;4.13;1.42;;;11.60;99.90;;;;;;6221433;23;20023;-81
2023/09/14 05:06:02;;;;;;;5.13;1.80;;;11.60;99.90;;;;;;6196082;23;20018;-80
2023/09/14 05:08:31;;;;;;;4.28;1.75;;;11.70;99.90;;;;;;6221822;23;20046;-79
2023/09/14 05:10:56;;;;;;;5.25;1.85;;;11.60;99.90;;;;;;6221212;23;20023;-79
2023/09/14 05:13:23;;;;;;;4.93;1.83;;;11.60;99.90;;;;;;6196000;23;20012;-80
2023/09/14 05:15:49;;;;;;;4.50;1.23;;;11.60;99.90;;;;;;6220739;23;20020;-80
2023/09/14 05:18:14;;;;;;;2.75;1.45;;;11.60;99.90;;;;;;6221231;23;20048;-80
2023/09/14 05:20:44;;;;;;;4.78;1.60;;;11.60;99.90;;;;;;6221329;23;20074;-80
2023/09/14 05:23:11;;;;;;;4.60;1.52;;;11.70;99.90;;;;;;6248074;23;20066;-80
2023/09/14 05:25:37;;;;;;;6.07;1.95;;;11.70;99.90;;;;;;6221097;23;20103;-80
2023/09/14 05:28:03;;;;;;;4.75;1.75;;;11.60;99.90;;;;;;6247966;23;20020;-80
2023/09/14 05:30:29;;;;;;;4.57;1.73;;;11.70;99.90;;;;;;6247585;22;20049;-80
2023/09/14 05:32:55;;;;;;;8.88;2.33;;;11.60;99.90;;;;;;6220647;23;20023;-80
2023/09/14 05:35:20;;;;;;;5.82;1.98;;;11.60;99.90;;;;;;6220474;23;20019;-80
2023/09/14 05:37:46;;;;;;;4.28;1.40;;;11.60;99.90;;;;;;6247823;23;20027;-79
2023/09/14 05:40:12;;;;;;;4.95;1.60;;;11.50;99.90;;;;;;6220933;23;20016;-80
2023/09/14 05:42:41;;;;;;;3.25;1.50;;;11.50;99.90;;;;;;6220867;23;20023;-79
2023/09/14 05:45:09;;;;;;;6.50;2.65;;;11.50;99.90;;;;;;6220721;23;20012;-80
2023/09/14 05:47:35;;;;;;;4.90;1.80;;;11.50;99.90;;;;;;6195837;23;20012;-80
2023/09/14 05:50:01;;;;;;;5.82;2.42;;;11.50;99.90;;;;;;6220871;23;20050;-81
2023/09/14 05:52:28;;;;;;;5.25;1.90;;;11.50;99.90;;;;;;6220664;23;20334;-80
2023/09/14 05:54:54;;;;;;;5.47;1.73;;;11.50;99.90;;;;;;6220946;23;20016;-81
2023/09/14 05:57:20;;;;;;;4.10;1.70;;;11.50;99.90;;;;;;6221005;23;20048;-80
2023/09/14 05:59:46;;;;;;;5.07;1.92;;;11.50;99.90;;;;;;6220766;23;20099;-81
2023/09/14 06:02:11;;;;;;;3.70;1.38;;;11.50;99.90;;;;;;6220966;23;20099;-81
2023/09/14 06:04:37;;;;;;;4.53;2.03;;;11.50;99.90;;;;;;6221119;23;20056;-81
2023/09/14 06:07:03;;;;;;;3.50;1.75;;;11.50;99.90;;;;;;6221019;23;20027;-81
2023/09/14 06:09:32;;;;;;;5.53;1.83;;;11.50;99.90;;;;;;6221151;23;20020;-81
2023/09/14 06:11:58;;;;;;;4.50;1.55;;;11.50;99.90;;;;;;6220482;23;20059;-81
2023/09/14 06:14:24;;;;;;;3.58;1.50;;;11.50;99.90;;;;;;6220621;23;20020;-82
2023/09/14 06:16:49;;;;;;;6.78;2.03;;;11.50;99.90;;;;;;6220768;23;20042;-84
2023/09/14 06:19:15;;;;;;;7.20;2.58;;;11.50;99.90;;;;;;6220872;23;20039;-85
2023/09/14 06:21:40;;;;;;;6.50;1.80;;;11.60;99.90;;;;;;6247067;23;20019;-82
2023/09/14 06:24:06;;;;;;;8.25;2.08;;;11.60;99.90;;;;;;6220569;23;20012;-81
2023/09/14 06:26:32;;;;;;;4.45;2.00;;;11.60;99.90;;;;;;6219943;23;20047;-82
2023/09/14 06:28:58;;;;;;;4.75;1.65;;;11.70;99.90;;;;;;6247874;23;20054;-82
2023/09/14 06:31:24;;;;;;;6.15;2.40;;;11.70;99.90;;;;;;6246697;23;20020;-83
2023/09/14 06:33:50;;;;;;;4.30;1.38;;;11.70;99.90;;;;;;6246707;23;20020;-82
2023/09/14 06:36:19;;;;;;;4.97;1.60;;;11.60;99.90;;;;;;6246867;23;20093;-83
2023/09/14 06:38:48;;;;;;;5.53;1.55;;;11.70;99.90;;;;;;6219653;23;20027;-82
2023/09/14 06:41:15;;;;;;;5.38;1.50;;;11.70;99.90;;;;;;6194837;23;20020;-82
2023/09/14 06:43:44;;;;;;;6.20;1.88;;;11.70;99.90;;;;;;6246996;23;20023;-81
2023/09/14 06:46:10;;;;;;;5.65;1.40;;;11.80;99.90;;;;;;6246922;23;20301;-81
2023/09/14 06:48:36;;;;;;;5.93;1.95;;;11.80;99.90;;;;;;6220608;23;20012;-79
2023/09/14 06:51:02;;;;;;;4.03;1.85;;;11.80;99.90;;;;;;6247171;23;20022;-80
2023/09/14 06:53:27;;;;;;;4.70;1.40;;;11.80;99.90;;;;;;6246457;23;20020;-80
2023/09/14 06:55:53;;;;;;;3.30;1.48;;;11.90;99.90;;;;;;6219684;23;20334;-80
2023/09/14 06:58:19;;;;;;;5.03;1.95;;;11.90;99.90;;;;;;6247164;23;20024;-80
2023/09/14 07:00:45;;;;;;;3.78;1.17;;;11.90;99.90;;;;;;6220100;23;20438;-82
2023/09/14 07:03:10;;;;;;;5.82;1.30;;;12.00;99.90;;;;;;6220652;23;20008;-80
2023/09/14 07:05:37;;;;;;;6.53;1.60;;;12.00;99.90;;;;;;6247570;23;20012;-79
2023/09/14 07:08:03;;;;;;;5.60;1.33;;;12.00;99.90;;;;;;6246809;22;20028;-78
2023/09/14 07:10:29;;;;;;;3.70;1.30;;;12.00;99.90;;;;;;6218663;23;20016;-77
2023/09/14 07:12:55;;;;;;;7.45;1.30;;;12.00;99.90;;;;;;6217407;23;20028;-77
2023/09/14 07:15:21;;;;;;;3.03;1.02;;;12.10;99.90;;;;;;6218654;23;20023;-78
2023/09/14 07:17:47;;;;;;;2.85;1.10;;;12.10;99.90;;;;;;6218829;23;20008;-77
2023/09/14 07:20:13;;;;;;;4.00;1.20;;;12.20;99.90;;;;;;6219116;23;20016;-78
2023/09/14 07:22:39;;;;;;;3.63;1.10;;;12.20;99.90;;;;;;6218572;23;20070;-78
2023/09/14 07:25:05;;;;;;;3.80;1.02;;;12.20;99.90;;;;;;6218855;23;20392;-79
2023/09/14 07:27:31;;;;;;;4.85;1.15;;;12.20;99.90;;;;;;6218881;23;20018;-78
2023/09/14 07:29:57;;;;;;;3.90;1.10;;;12.30;99.90;;;;;;6218501;23;20476;-76
2023/09/14 07:32:23;;;;;;;5.70;1.30;;;12.30;99.90;;;;;;6218947;23;20021;-78
2023/09/14 07:34:48;;;;;;;9.45;1.52;;;12.30;99.90;;;;;;6218217;23;20094;-77
2023/09/14 07:37:14;;;;;;;3.85;1.25;;;12.30;99.90;;;;;;6218995;23;20463;-78
2023/09/14 07:39:40;;;;;;;5.20;1.38;;;12.40;99.90;;;;;;6193629;23;20377;-77
2023/09/14 07:42:05;;;;;;;5.35;1.67;;;12.40;99.90;;;;;;6245171;23;20378;-80
2023/09/14 07:44:31;;;;;;;3.30;0.90;;;12.40;99.90;;;;;;6245677;23;20016;-79
2023/09/14 07:46:56;;;;;;;4.78;1.00;;;12.40;99.90;;;;;;6218606;23;20012;-79
2023/09/14 07:49:22;;;;;;;5.35;1.92;;;12.50;99.90;;;;;;6245644;23;20016;-79
2023/09/14 07:51:48;;;;;;;3.65;1.02;;;12.50;99.90;;;;;;6218975;23;20012;-78
2023/09/14 07:54:16;;;;;;;8.75;1.17;;;12.50;99.90;;;;;;6218570;23;20389;-79
2023/09/14 07:56:42;;;;;;;6.03;1.30;;;12.60;99.90;;;;;;6218885;23;20016;-79
2023/09/14 07:59:08;;;;;;;4.72;1.10;;;12.60;99.90;;;;;;6218979;23;20027;-79
2023/09/14 08:01:35;;;;;;;8.57;1.80;;;12.70;99.90;;;;;;6218679;23;20012;-78
2023/09/14 08:04:03;;;;;;;3.53;0.73;;;12.70;99.90;;;;;;6218769;23;20023;-79
2023/09/14 08:06:29;;;;;;;4.55;1.00;;;12.80;99.90;;;;;;6218489;23;20016;-78
2023/09/14 08:08:55;;;;;;;4.45;1.13;;;12.80;99.90;;;;;;6219106;23;20391;-79
2023/09/14 08:11:21;;;;;;;6.38;1.45;;;12.90;99.90;;;;;;6218564;23;20102;-80
2023/09/14 08:13:47;;;;;;;13.10;2.33;;;12.90;99.90;;;;;;6245643;23;20016;-79
2023/09/14 08:16:12;;;;;;;5.55;1.52;;;13.00;99.90;;;;;;6218826;23;20016;-78
2023/09/14 08:18:38;;;;;;;3.85;0.73;;;13.10;99.90;;;;;;6193678;23;20103;-79
2023/09/14 08:21:03;;;;;;;4.03;1.10;;;13.10;99.90;;;;;;6218845;23;20020;-79
2023/09/14 08:23:29;;;;;;;5.60;1.10;;;13.20;99.90;;;;;;6218647;23;20019;-79
2023/09/14 08:25:55;;;;;;;4.78;1.13;;;13.30;99.90;;;;;;6218729;23;20463;-79
2023/09/14 08:28:21;;;;;;;6.80;1.55;;;13.30;99.90;;;;;;6218720;23;20023;-78
2023/09/14 08:30:48;;;;;;;5.18;1.00;;;13.40;99.90;;;;;;6218148;23;20105;-79
2023/09/14 08:33:15;;;;;;;2.60;0.80;;;13.50;99.90;;;;;;6218568;23;20020;-79
2023/09/14 08:35:43;;;;;;;5.35;1.00;;;13.50;99.90;;;;;;6218575;23;20012;-79
2023/09/14 08:38:09;;;;;;;5.15;1.10;;;13.60;99.90;;;;;;6218357;23;20385;-81
2023/09/14 08:40:35;;;;;;;5.60;1.23;;;13.70;99.90;;;;;;6217940;23;20023;-79
2023/09/14 08:43:02;;;;;;;8.20;1.40;;;13.80;99.90;;;;;;6218570;23;20142;-76
2023/09/14 08:45:29;;;;;;;8.63;1.40;;;13.80;99.90;;;;;;6218748;23;20545;-76
2023/09/14 08:47:56;;;;;;;6.45;1.30;;;13.90;99.90;;;;;;6218815;23;20016;-77
2023/09/14 08:50:30;;;;;;;8.38;1.52;;;14.00;99.90;;;;;;6218771;23;20512;-76
2023/09/14 08:52:56;;;;;;;6.68;1.05;;;14.10;99.90;;;;;;6218647;23;20016;-78
2023/09/14 08:55:24;;;;;;;5.70;0.93;;;14.20;99.90;;;;;;6218462;23;20022;-77
2023/09/14 08:57:51;;;;;;;7.25;1.50;;;14.30;99.90;;;;;;6218630;23;20042;-76
2023/09/14 09:00:18;;;;;;;6.50;1.33;;;14.50;99.90;;;;;;6218529;23;20503;-77
2023/09/14 09:02:46;;;;;;;7.80;1.45;;;14.60;99.90;;;;;;6218398;23;20461;-77
2023/09/14 09:05:14;;;;;;;5.55;1.10;;;14.80;99.90;;;;;;6218498;23;20064;-77
2023/09/14 09:07:41;;;;;;;5.30;1.40;;;14.90;99.90;;;;;;6218563;23;20350;-78
2023/09/14 09:10:22;;;;;;;7.30;1.00;;;15.10;99.90;;;;;;6218604;23;20101;-76
2023/09/14 09:12:50;;;;;;;5.95;1.30;;;15.30;99.90;;;;;;6218460;23;20209;-76
2023/09/14 09:15:16;;;;;;;3.40;1.05;;;15.50;99.90;;;;;;6218399;23;20023;-77
2023/09/14 09:17:44;;;;;;;9.50;1.40;;;15.70;99.90;;;;;;6220180;23;20016;-76
2023/09/14 09:20:13;;;;;;;9.75;1.20;;;15.90;99.90;;;;;;6247234;23;20027;-76
2023/09/14 09:22:42;;;;;;;5.28;1.00;;;16.10;99.90;;;;;;6220173;23;20020;-77
2023/09/14 09:25:08;;;;;;;8.90;1.50;;;16.20;99.90;;;;;;6246942;23;20012;-77
2023/09/14 09:27:33;;;;;;;6.20;1.20;;;16.40;99.90;;;;;;6247133;23;20023;-76
2023/09/14 09:30:03;;;;;;;11.45;1.83;;;16.50;99.90;;;;;;6220347;23;20020;-76
2023/09/14 09:32:29;;;;;;;5.68;1.23;;;16.70;99.90;;;;;;6220094;23;20051;-76
2023/09/14 09:34:55;;;;;;;6.22;1.10;;;16.80;99.90;;;;;;6220202;23;20322;-78
2023/09/14 09:37:23;;;;;;;5.30;0.95;;;16.90;99.90;;;;;;6220306;23;20095;-77
2023/09/14 09:39:49;;;;;;;7.15;1.23;;;17.00;99.90;;;;;;6219633;23;20059;-77
2023/09/14 09:42:19;;;;;;;6.25;1.08;;;17.10;99.90;;;;;;6219813;23;20089;-77
2023/09/14 09:44:45;;;;;;;5.13;1.30;;;17.20;99.90;;;;;;6219837;23;20020;-77
2023/09/14 09:47:14;;;;;;;9.02;1.25;;;17.30;99.90;;;;;;6219800;23;20426;-77
2023/09/14 09:49:40;;;;;;;7.07;1.13;;;17.40;99.90;;;;;;6219816;23;20024;-76
2023/09/14 09:52:12;;;;;;;6.32;1.52;;;17.50;99.90;;;;;;6219952;23;20487;-78
2023/09/14 09:54:38;;;;;;;6.32;1.23;;;17.60;99.90;;;;;;6219870;23;20058;-76
2023/09/14 09:57:04;;;;;;;10.75;1.63;;;17.80;99.90;;;;;;6220099;23;20012;-77
2023/09/14 09:59:31;;;;;;;8.98;1.40;;;17.90;99.90;;;;;;6219795;23;20020;-76
2023/09/14 10:01:57;;;;;;;6.43;1.40;;;18.00;99.90;;;;;;6219972;23;20430;-76
2023/09/14 10:04:28;;;;;;;4.57;1.17;;;18.10;99.90;;;;;;6220474;23;20139;-76
2023/09/14 10:06:59;;;;;;;5.38;1.20;;;18.20;99.90;;;;;;6247429;23;20023;-75
2023/09/14 10:09:26;;;;;;;5.18;1.55;;;18.40;99.90;;;;;;6247113;23;20027;-76
2023/09/14 10:11:53;;;;;;;6.85;1.30;;;18.50;99.90;;;;;;6246544;23;20055;-76
2023/09/14 10:14:24;;;;;;;5.45;1.75;;;18.60;99.90;;;;;;6246181;22;20051;-76
2023/09/14 10:16:53;;;;;;;6.85;1.95;;;18.80;99.90;;;;;;6219427;23;20020;-76
2023/09/14 10:19:21;;;;;;;5.10;1.00;;;18.80;99.90;;;;;;6246478;23;20020;-76
2023/09/14 10:21:47;;;;;;;6.53;1.83;;;18.80;99.90;;;;;;6219606;23;20372;-75
2023/09/14 10:24:15;;;;;;;6.68;1.60;;;18.80;99.90;;;;;;6219309;23;20020;-76
2023/09/14 10:26:43;;;;;;;8.20;1.60;;;18.90;99.90;;;;;;6219554;23;20090;-76
2023/09/14 10:29:09;;;;;;;7.93;1.60;;;19.00;99.90;;;;;;6245777;23;20026;-76
2023/09/14 10:31:35;;;;;;;6.40;1.30;;;19.00;99.90;;;;;;6246315;23;20024;-75
2023/09/14 10:34:02;;;;;;;6.22;1.33;;;19.00;99.90;;;;;;6218884;23;20453;-76
2023/09/14 10:36:32;;;;;;;6.85;1.27;;;18.90;99.90;;;;;;6219416;23;20056;-76
2023/09/14 10:39:01;;;;;;;9.73;1.42;;;18.80;99.90;;;;;;6246223;23;20012;-77
2023/09/14 10:41:30;;;;;;;6.45;1.65;;;18.70;99.90;;;;;;6246162;23;20446;-78
2023/09/14 10:43:56;;;;;;;6.50;1.50;;;18.60;99.90;;;;;;6246498;23;20027;-78
2023/09/14 10:46:36;;;;;;;7.00;1.35;;;18.60;99.90;;;;;;6219669;23;20515;-80
2023/09/14 10:49:02;;;;;;;4.78;1.45;;;18.90;99.90;;;;;;6219196;23;20016;-81
2023/09/14 10:51:28;;;;;;;9.50;1.63;;;19.10;99.90;;;;;;6246049;23;20020;-80
2023/09/14 10:53:54;;;;;;;6.80;1.63;;;19.30;99.90;;;;;;6219019;23;20059;-80
2023/09/14 10:56:31;;;;;;;6.65;1.67;;;19.40;99.90;;;;;;6219211;23;20020;-80
2023/09/14 10:58:57;;;;;;;6.22;1.73;;;19.40;99.90;;;;;;6219058;23;20058;-79
2023/09/14 11:01:27;;;;;;;6.10;1.63;;;19.30;99.90;;;;;;6218993;23;20020;-81
2023/09/14 11:04:11;;;;;;;5.95;1.30;;;19.20;99.90;;;;;;6219237;23;20008;-81
2023/09/14 11:06:54;;;;;;;5.25;1.33;;;19.20;99.90;;;;;;6219302;23;20069;-80
2023/09/14 11:09:23;;;;;;;5.25;1.33;;;19.10;99.90;;;;;;6219345;23;20023;-81
2023/09/14 11:11:52;;;;;;;8.40;1.38;;;19.00;99.90;;;;;;6219228;23;20485;-81
2023/09/14 11:14:20;;;;;;;7.88;1.60;;;18.90;99.90;;;;;;6245571;22;20023;-80
2023/09/14 11:16:58;;;;;;;5.05;1.60;;;18.90;99.90;;;;;;6218927;23;20106;-80
2023/09/14 11:19:30;;;;;;;8.98;1.58;;;18.80;99.90;;;;;;6218997;23;20441;-80
2023/09/14 11:22:05;;;;;;;8.10;1.70;;;18.80;99.90;;;;;;6218833;23;20058;-80
2023/09/14 11:24:36;;;;;;;8.55;1.55;;;18.70;99.90;;;;;;6218721;23;20447;-79
2023/09/14 11:27:02;;;;;;;6.13;1.50;;;18.70;99.90;;;;;;6218748;23;20441;-80
2023/09/14 11:29:30;;;;;;;8.27;1.90;;;18.70;99.90;;;;;;6218922;23;20119;-81
2023/09/14 11:32:08;;;;;;;6.20;1.50;;;18.70;99.90;;;;;;6218487;23;20046;-79
2023/09/14 11:34:38;;;;;;;9.15;1.80;;;18.60;99.90;;;;;;6218707;23;20023;-80
2023/09/14 11:37:07;;;;;;;8.15;1.50;;;18.60;99.90;;;;;;6245463;23;20022;-80
2023/09/14 11:39:34;;;;;;;6.72;1.48;;;18.50;99.90;;;;;;6218697;23;20012;-80
2023/09/14 11:42:01;;;;;;;7.38;1.98;;;18.50;99.90;;;;;;6218636;23;20147;-80
2023/09/14 11:44:31;;;;;;;5.38;1.35;;;18.50;99.90;;;;;;6218488;23;20078;-79
2023/09/14 11:47:02;;;;;;;6.82;1.77;;;18.50;99.90;;;;;;6218619;23;20016;-80
2023/09/14 11:49:30;;;;;;;7.93;1.67;;;18.50;99.90;;;;;;6218730;23;20401;-81
2023/09/14 11:51:56;;;;;;;9.40;1.83;;;18.40;99.90;;;;;;6218652;23;20016;-81
2023/09/14 11:54:22;;;;;;;6.93;1.73;;;18.40;99.90;;;;;;6218665;23;20016;-81
2023/09/14 11:56:51;;;;;;;7.30;1.88;;;18.50;99.90;;;;;;6218697;23;20008;-81
2023/09/14 11:59:30;;;;;;;8.63;2.60;;;18.70;99.90;;;;;;6218429;23;20031;-81
2023/09/14 12:01:56;;;;;;;9.65;2.20;;;18.90;99.90;;;;;;6218659;23;20024;-81
2023/09/14 12:04:26;;;;;;;7.40;1.90;;;19.10;99.90;;;;;;6218636;23;20016;-81
2023/09/14 12:06:52;;;;;;;5.07;1.65;;;19.20;99.90;;;;;;6245487;23;20015;-82
2023/09/14 12:09:41;;;;;;;7.93;1.92;;;19.30;99.90;;;;;;6218406;23;20090;-81
2023/09/14 12:12:10;;;;;;;8.00;1.77;;;19.40;99.90;;;;;;6218727;23;20016;-80
2023/09/14 12:14:45;;;;;;;6.60;1.63;;;19.60;99.90;;;;;;6218664;23;20016;-81
2023/09/14 12:17:27;;;;;;;10.95;1.80;;;19.80;99.90;;;;;;6193476;23;20099;-85
2023/09/14 12:19:59;;;;;;;7.78;1.80;;;20.00;99.90;;;;;;6246690;23;20024;-87
2023/09/14 12:22:28;;;;;;;7.88;1.60;;;20.10;99.90;;;;;;6218665;23;20026;-82
2023/09/14 12:24:54;;;;;;;8.55;1.77;;;20.30;99.90;;;;;;6193167;23;20019;-82
2023/09/14 12:27:20;;;;;;;5.95;2.10;;;20.40;99.90;;;;;;6218861;23;20091;-86
2023/09/14 12:29:47;;;;;;;5.78;1.80;;;20.50;99.90;;;;;;6246629;23;20016;-87
2023/09/14 12:32:15;;;;;;;7.57;1.92;;;20.70;99.90;;;;;;6216372;23;20043;-87
2023/09/14 12:34:41;;;;;;;5.82;1.80;;;20.80;99.90;;;;;;6216187;23;20013;-86
2023/09/14 12:37:07;;;;;;;8.82;1.83;;;20.80;99.90;;;;;;6216016;23;20028;-85
2023/09/14 12:39:33;;;;;;;6.88;1.73;;;20.80;98.90;;;;;;6215583;23;20012;-86
2023/09/14 12:42:03;;;;;;;6.78;1.95;;;20.80;98.10;;;;;;6216208;23;20021;-87
2023/09/14 12:44:29;;;;;;;10.57;1.85;;;20.70;99.00;;;;;;6189536;23;20025;-85
2023/09/14 12:46:55;;;;;;;8.25;2.00;;;20.50;99.10;;;;;;6189363;23;20331;-82